Bookmark and Share
Track history (hours):
 

Grande Europa

Last reported at 2014-Apr-24 01:11 UTC. Time now 2014-Apr-24 05:56 UTC.
Position N 55°49' E 007°25'.

Length 183 m; draft 7.9 m.

Type: Cargo ship. MMSI: 247206000.

NotesDate/timePositionNaut miles runAvg speedWind from/ knotsBaromVisibWave heightAir tempDewpointWater temp
2014-Apr-24 01:11N 55°49' E 007°25'1117.8
2014-Apr-24 00:33N 55°39' E 007°20'1716.9
2014-Apr-23 23:33N 55°26' E 007°40'1717.4
2014-Apr-23 22:33N 55°25' E 008°11'9 9.4
2014-Apr-23 21:33N 55°28' E 008°27'0 0.2
2014-Apr-23 20:33N 55°28' E 008°27'0 0.0
2014-Apr-23 19:33N 55°28' E 008°27'0 0.0
2014-Apr-23 18:33N 55°28' E 008°27'0 0.0
2014-Apr-23 17:30N 55°28' E 008°27'0 0.0
2014-Apr-23 16:30N 55°28' E 008°27'0 0.0
2014-Apr-23 15:30N 55°28' E 008°27'0 0.0
2014-Apr-23 14:33N 55°28' E 008°27'0 0.0
2014-Apr-23 13:30N 55°28' E 008°27'0 0.0
2014-Apr-23 12:30N 55°28' E 008°27'0 0.0
2014-Apr-23 11:33N 55°28' E 008°27'0 0.0
2014-Apr-23 10:30N 55°28' E 008°27'3 3.3
2014-Apr-23 09:33N 55°29' E 008°22'1312.9
2014-Apr-23 08:33N 55°21' E 008°04'1717.4
2014-Apr-23 07:33N 55°10' E 007°40'1717.1
2014-Apr-23 06:33N 54°59' E 007°18'1616.2
2014-Apr-23 05:33N 54°52' E 006°52'3215.9
2014-Apr-23 03:33N 54°38' E 006°03'3316.4
2014-Apr-23 01:32N 54°18' E 005°18'1616.5
2014-Apr-23 00:33N 54°07' E 004°57'1616.4
2014-Apr-22 23:33N 53°55' E 004°37'14916.6
2014-Apr-22 14:33N 51°46' E 002°34'1716.9
2014-Apr-22 13:33N 51°33' E 002°17'1616.4
2014-Apr-22 12:33N 51°18' E 002°05'1615.8
2014-Apr-22 11:33N 51°07' E 001°47'1616.3
2014-Apr-22 10:33N 50°55' E 001°30'1717.0
2014-Apr-22 09:33N 50°40' E 001°16'1717.3
2014-Apr-22 08:33N 50°30' E 000°54'1817.6
2014-Apr-22 07:33N 50°25' E 000°28'2217.5
2014-Apr-22 06:17N 50°19' W 000°06'1317.3
2014-Apr-22 05:33N 50°16' W 000°25'1717.5
2014-Apr-22 04:33N 50°12' W 000°52'1818.4
2014-Apr-22 03:33N 50°06' W 001°19'2519.7
2014-Apr-22 02:18N 49°58' W 001°55'1820.5
2014-Apr-22 01:24N 49°54' W 002°23'13313.5
2014-Apr-21 15:33N 50°32' W 005°42'1918.5
2014-Apr-21 14:33N 50°44' W 005°19'8917.7
2014-Apr-21 09:31N 51°22' W 003°11'1212.9
2014-Apr-21 08:33N 51°28' W 002°54'7 6.8
2014-Apr-21 07:33N 51°30' W 002°44'0 0.4
2014-Apr-21 06:30N 51°30' W 002°43'0 0.0
2014-Apr-21 05:33N 51°30' W 002°43'0 0.0
2014-Apr-21 04:33N 51°30' W 002°43'0 0.0
2014-Apr-21 03:33N 51°30' W 002°43'0 0.0
2014-Apr-21 02:33N 51°30' W 002°43'0 0.0
2014-Apr-21 01:33N 51°30' W 002°43'0 0.0
2014-Apr-21 00:33N 51°30' W 002°43'0 0.0
2014-Apr-20 23:33N 51°30' W 002°43'0 0.0
2014-Apr-20 22:33N 51°30' W 002°43'0 0.0
2014-Apr-20 21:33N 51°30' W 002°43'0 0.0
2014-Apr-20 20:33N 51°30' W 002°43'0 0.0
2014-Apr-20 19:33N 51°30' W 002°43'0 0.0
2014-Apr-20 18:33N 51°30' W 002°43'0 0.0
2014-Apr-20 17:33N 51°30' W 002°43'0 0.0
2014-Apr-20 16:33N 51°30' W 002°43'0 0.0
2014-Apr-20 15:33N 51°30' W 002°43'0 0.0
2014-Apr-20 14:33N 51°30' W 002°43'0 0.0
2014-Apr-20 13:33N 51°30' W 002°43'0 0.0
2014-Apr-20 12:33N 51°30' W 002°43'0 0.0
2014-Apr-20 11:33N 51°30' W 002°43'0 0.1
2014-Apr-20 10:33N 51°30' W 002°43'1 0.5
2014-Apr-20 09:33N 51°30' W 002°44'8 7.3
2014-Apr-20 08:31N 51°27' W 002°55'1616.1
2014-Apr-20 07:33N 51°20' W 003°17'7913.1
2014-Apr-20 01:33N 50°46' W 005°10'1716.9
2014-Apr-20 00:33N 50°34' W 005°30'1716.6
2014-Apr-19 23:32N 50°22' W 005°49'71316.5
2014-Apr-18 04:20N 38°51' W 009°52'1516.7
2014-Apr-18 03:26N 38°36' W 009°47'1817.3
2014-Apr-18 02:24N 38°27' W 009°28'1517.4
2014-Apr-18 01:33N 38°20' W 009°11'1514.6
2014-Apr-18 00:33N 38°29' W 008°56'3 3.0
2014-Apr-17 23:31N 38°31' W 008°53'0 0.0
2014-Apr-17 22:31N 38°31' W 008°53'0 0.0
2014-Apr-17 21:31N 38°31' W 008°53'0 0.0
2014-Apr-17 20:28N 38°31' W 008°53'0 0.0
2014-Apr-17 19:31N 38°31' W 008°53'0 0.0
2014-Apr-17 18:31N 38°31' W 008°53'0 0.0
2014-Apr-17 17:31N 38°31' W 008°53'0 0.0
2014-Apr-17 16:31N 38°31' W 008°53'0 0.0
2014-Apr-17 15:31N 38°31' W 008°53'3 2.8
2014-Apr-17 14:33N 38°29' W 008°56'7 6.6
2014-Apr-17 13:33N 38°25' W 009°01'6 5.7
2014-Apr-17 12:33N 38°19' W 009°02'1312.5
2014-Apr-17 11:33N 38°07' W 009°05'1616.5
2014-Apr-17 10:33N 37°51' W 009°09'1716.9
2014-Apr-17 09:33N 37°34' W 009°13'1717.0
2014-Apr-17 08:33N 37°17' W 009°17'1916.9
2014-Apr-17 07:27N 36°59' W 009°21'1716.3
2014-Apr-17 06:25N 36°45' W 009°09'1517.4
2014-Apr-17 05:33N 36°40' W 008°52'1817.6
2014-Apr-17 04:33N 36°34' W 008°31'1817.6
2014-Apr-17 03:33N 36°29' W 008°10'11117.2
2014-Apr-16 21:06N 35°57' W 005°58'1516.5
2014-Apr-16 20:10N 35°57' W 005°39'914.3
2014-Apr-16 19:33N 35°59' W 005°29'1515.4
2014-Apr-16 18:33N 36°03' W 005°10'24317.3
2014-Apr-16 04:32N 37°37' W 000°31'2017.7
2014-Apr-16 03:22N 37°54' W 000°16'1517.2
2014-Apr-16 02:32N 38°06' W 000°07'3014.8
2014-Apr-16 00:29N 38°32' E 000°14'1717.8
2014-Apr-15 23:32N 38°45' E 000°27'2017.7
2014-Apr-15 22:24N 38°56' E 000°48'3217.2
2014-Apr-15 20:33N 39°14' E 001°22'1818.0
2014-Apr-15 19:34N 39°25' E 001°40'1716.5
2014-Apr-15 18:33N 39°36' E 001°56'1818.0
2014-Apr-15 17:33N 39°49' E 002°13'1717.1
2014-Apr-15 16:33N 40°01' E 002°29'1716.9
2014-Apr-15 15:33N 40°12' E 002°45'1717.3
2014-Apr-15 14:33N 40°24' E 003°02'17 8.6
2014-Apr-15 12:34N 40°35' E 003°19'1818.3
2014-Apr-15 11:33N 40°48' E 003°36'1817.2
2014-Apr-15 10:30N 41°00' E 003°54'1617.0
2014-Apr-15 09:34N 41°11' E 004°09'1717.0
2014-Apr-15 08:34N 41°23' E 004°26'3316.3
2014-Apr-15 06:33N 41°45' E 004°58'4615.4
2014-Apr-15 03:34N 42°15' E 005°45'1616.0
2014-Apr-15 02:34N 42°26' E 006°01'1615.8
2014-Apr-15 01:34N 42°36' E 006°18'1716.4
2014-Apr-15 00:33N 42°47' E 006°34'1716.9
2014-Apr-14 23:34N 42°58' E 006°52'1716.6
2014-Apr-14 22:34N 43°09' E 007°09'6716.6
2014-Apr-14 18:30N 43°53' E 008°19'1516.5
2014-Apr-14 17:34N 44°07' E 008°28'1211.7
2014-Apr-14 16:31N 44°19' E 008°30'0 0.0
2014-Apr-14 14:31N 44°19' E 008°30'0 0.0
2014-Apr-14 13:31N 44°19' E 008°30'0 0.1
2014-Apr-14 09:33N 44°19' E 008°30'7 7.1
2014-Apr-14 08:33N 44°13' E 008°35'6 5.7
2014-Apr-14 07:33N 44°08' E 008°39'1 1.1
2014-Apr-14 06:33N 44°07' E 008°41'1010.4
2014-Apr-14 05:33N 43°59' E 008°48'  

Dump ship's entire track history

sailing weather and tide predictions

Grande Europa — ICGE — position and weather